createdAt,value
2019-03-06T00:01:00.848Z,9.13
2019-03-06T00:03:30.580Z,37.03
2019-03-06T00:06:00.215Z,34.07
2019-03-06T00:08:29.806Z,17.67
2019-03-06T00:10:59.387Z,29.50
2019-03-06T00:13:29.024Z,37.13
2019-03-06T00:15:58.698Z,39.80
2019-03-06T00:18:28.364Z,34.07
2019-03-06T00:20:58.125Z,15.67
2019-03-06T00:23:27.691Z,15.37
2019-03-06T00:25:57.588Z,17.43
2019-03-06T00:28:27.279Z,20.77
2019-03-06T00:30:56.908Z,16.87
2019-03-06T00:33:26.571Z,21.77
2019-03-06T00:35:56.503Z,21.50
2019-03-06T00:38:26.270Z,10.70
2019-03-06T00:41:16.988Z,24.90
2019-03-06T00:43:46.661Z,18.53
2019-03-06T00:46:16.568Z,14.10
2019-03-06T00:48:46.195Z,9.93
2019-03-06T00:51:15.831Z,7.83
2019-03-06T00:53:45.478Z,13.47
2019-03-06T00:56:15.106Z,11.67
2019-03-06T00:58:44.744Z,10.17
2019-03-06T01:01:14.490Z,7.70
2019-03-06T01:03:44.120Z,7.90
2019-03-06T01:06:13.680Z,12.87
2019-03-06T01:08:43.248Z,11.13
2019-03-06T01:11:12.801Z,12.37
2019-03-06T01:13:42.436Z,5.13
2019-03-06T01:16:12.076Z,7.27
2019-03-06T01:18:41.656Z,6.57
2019-03-06T01:21:11.485Z,4.37
2019-03-06T01:23:41.119Z,7.70
2019-03-06T01:26:10.675Z,4.73
2019-03-06T01:28:40.336Z,9.90
2019-03-06T01:31:09.929Z,12.80
2019-03-06T01:33:58.799Z,8.20
2019-03-06T01:36:44.310Z,13.73
2019-03-06T01:39:31.806Z,6.27
2019-03-06T01:42:09.834Z,9.87
2019-03-06T01:44:43.107Z,10.03
2019-03-06T01:47:12.767Z,9.97
2019-03-06T01:49:42.452Z,6.83
2019-03-06T01:52:12.003Z,10.33
2019-03-06T01:54:41.564Z,10.27
2019-03-06T01:57:11.105Z,6.97
2019-03-06T01:59:40.651Z,10.20
2019-03-06T02:02:10.204Z,7.43
2019-03-06T02:04:39.758Z,5.47
2019-03-06T02:07:09.611Z,11.07
2019-03-06T02:09:39.436Z,7.27
2019-03-06T02:12:09.049Z,5.80
2019-03-06T02:14:38.676Z,6.60
2019-03-06T02:17:08.233Z,13.90
2019-03-06T02:19:37.829Z,7.03
2019-03-06T02:22:07.716Z,4.53
2019-03-06T02:24:37.295Z,8.93
2019-03-06T02:27:08.137Z,6.80
2019-03-06T02:29:37.705Z,5.10
2019-03-06T02:32:07.317Z,7.20
2019-03-06T02:34:37.043Z,7.93
2019-03-06T02:37:06.592Z,4.93
2019-03-06T02:39:36.151Z,9.13
2019-03-06T02:42:05.703Z,9.40
2019-03-06T02:44:35.254Z,7.50
2019-03-06T02:47:04.899Z,10.27
2019-03-06T02:49:34.473Z,7.33
2019-03-06T02:52:04.083Z,3.23
2019-03-06T02:54:33.644Z,7.53
2019-03-06T02:57:03.261Z,9.97
2019-03-06T02:59:44.214Z,5.33
2019-03-06T03:02:31.628Z,7.13
2019-03-06T03:05:32.246Z,6.20
2019-03-06T03:08:01.868Z,6.40
2019-03-06T03:10:31.511Z,4.43
2019-03-06T03:13:01.345Z,4.83
2019-03-06T03:15:30.975Z,5.07
2019-03-06T03:18:00.540Z,5.33
2019-03-06T03:20:30.093Z,5.97
2019-03-06T03:23:00.505Z,5.37
2019-03-06T03:25:30.338Z,7.13
2019-03-06T03:27:59.880Z,5.50
2019-03-06T03:30:29.440Z,6.33
2019-03-06T03:32:59.054Z,6.67
2019-03-06T03:35:28.624Z,8.53
2019-03-06T03:37:58.434Z,6.27
2019-03-06T03:40:28.022Z,5.70
2019-03-06T03:42:57.631Z,6.03
2019-03-06T03:45:27.184Z,12.17
2019-03-06T03:47:56.803Z,9.77
2019-03-06T03:50:26.641Z,8.10
2019-03-06T03:52:56.176Z,9.23
2019-03-06T03:55:25.724Z,8.43
2019-03-06T03:57:55.269Z,7.80
2019-03-06T04:00:24.908Z,9.60
2019-03-06T04:02:54.632Z,7.00
2019-03-06T04:05:24.247Z,7.00
2019-03-06T04:07:53.811Z,10.03
2019-03-06T04:10:23.363Z,9.47
2019-03-06T04:12:52.947Z,5.87
2019-03-06T04:15:22.917Z,5.70
2019-03-06T04:17:52.627Z,5.17
2019-03-06T04:20:22.231Z,7.37
2019-03-06T04:22:51.783Z,7.30
2019-03-06T04:25:21.489Z,8.63
2019-03-06T04:27:51.337Z,6.87
2019-03-06T04:30:20.975Z,7.30
2019-03-06T04:32:50.519Z,5.07
2019-03-06T04:35:22.454Z,6.97
2019-03-06T04:37:52.004Z,5.57
2019-03-06T04:40:24.898Z,5.23
2019-03-06T04:42:54.450Z,6.10
2019-03-06T04:45:24.078Z,6.10
2019-03-06T04:47:53.689Z,4.93
2019-03-06T04:50:23.256Z,5.93
2019-03-06T04:52:52.803Z,6.53
2019-03-06T04:55:22.427Z,6.17
2019-03-06T04:57:51.972Z,8.27
2019-03-06T05:00:21.535Z,6.80
2019-03-06T05:02:51.429Z,7.67
2019-03-06T05:05:21.000Z,7.47
2019-03-06T05:07:50.568Z,7.70
2019-03-06T05:10:20.182Z,8.43
2019-03-06T05:12:49.730Z,10.23
2019-03-06T05:15:19.613Z,10.17
2019-03-06T05:18:03.478Z,9.77
2019-03-06T05:20:33.205Z,8.27
2019-03-06T05:23:02.762Z,8.20
2019-03-06T05:25:32.536Z,10.60
2019-03-06T05:28:02.101Z,9.63
2019-03-06T05:30:31.660Z,7.30
2019-03-06T05:33:01.231Z,6.87
2019-03-06T05:35:33.340Z,6.17
2019-03-06T05:38:07.851Z,8.90
2019-03-06T05:40:38.008Z,8.53
2019-03-06T05:43:07.575Z,7.50
2019-03-06T05:45:37.128Z,9.23
2019-03-06T05:48:06.684Z,8.07
2019-03-06T05:50:36.333Z,8.67
2019-03-06T05:53:05.905Z,9.77
2019-03-06T05:55:35.473Z,6.77
2019-03-06T05:58:05.095Z,10.03
2019-03-06T06:00:34.740Z,9.27
2019-03-06T06:03:04.460Z,9.00
2019-03-06T06:05:34.019Z,10.47
2019-03-06T06:08:03.575Z,8.17
2019-03-06T06:10:33.403Z,11.70
2019-03-06T06:13:02.990Z,7.90
2019-03-06T06:15:32.659Z,10.10
2019-03-06T06:18:02.267Z,8.80
2019-03-06T06:20:31.838Z,9.60
2019-03-06T06:23:19.560Z,9.80
2019-03-06T06:25:49.261Z,8.00
2019-03-06T06:28:18.877Z,6.73
2019-03-06T06:30:48.523Z,12.20
2019-03-06T06:33:18.050Z,8.90
2019-03-06T06:35:47.659Z,7.47
2019-03-06T06:38:17.202Z,7.60
2019-03-06T06:40:46.827Z,11.10
2019-03-06T06:43:16.375Z,9.13
2019-03-06T06:45:45.987Z,5.93
2019-03-06T06:48:16.595Z,9.23
2019-03-06T06:50:47.945Z,8.57
2019-03-06T06:53:45.703Z,7.17
2019-03-06T06:56:37.174Z,9.83
2019-03-06T06:59:09.379Z,10.90
2019-03-06T07:01:56.688Z,7.53
2019-03-06T07:05:19.997Z,9.33
2019-03-06T07:08:07.567Z,15.37
2019-03-06T07:10:56.308Z,15.97
2019-03-06T07:13:34.119Z,5.63
2019-03-06T07:16:21.435Z,10.13
2019-03-06T07:19:19.302Z,9.03
2019-03-06T07:22:13.872Z,8.07
2019-03-06T07:25:01.256Z,9.73
2019-03-06T07:27:56.521Z,12.97
2019-03-06T07:30:47.254Z,7.13
2019-03-06T07:33:33.503Z,8.47
2019-03-06T07:36:10.871Z,7.47
2019-03-06T07:38:40.516Z,14.20
2019-03-06T07:41:35.188Z,11.70
2019-03-06T07:44:18.065Z,6.10
2019-03-06T07:46:58.335Z,4.77
2019-03-06T07:49:47.095Z,8.40
2019-03-06T07:52:25.869Z,4.37
2019-03-06T07:55:01.591Z,4.33
2019-03-06T07:57:42.324Z,8.37
2019-03-06T08:00:13.776Z,6.67
2019-03-06T08:02:55.515Z,7.83
2019-03-06T08:05:25.103Z,4.20
2019-03-06T08:07:54.860Z,8.57
2019-03-06T08:10:27.273Z,7.37
2019-03-06T08:13:21.955Z,8.87
2019-03-06T08:16:02.201Z,8.47
2019-03-06T08:18:39.113Z,7.53
2019-03-06T08:21:30.645Z,4.10
2019-03-06T08:24:32.605Z,6.53
2019-03-06T08:27:04.292Z,5.50
2019-03-06T08:29:33.911Z,7.20
2019-03-06T08:32:12.334Z,4.97
2019-03-06T08:34:41.923Z,5.37
2019-03-06T08:37:11.779Z,12.37
2019-03-06T08:39:41.447Z,9.20
2019-03-06T08:42:11.105Z,6.57
2019-03-06T08:44:40.900Z,6.00
2019-03-06T08:47:28.456Z,5.07
2019-03-06T08:50:26.372Z,4.93
2019-03-06T08:53:13.907Z,6.37
2019-03-06T08:56:06.168Z,6.23
2019-03-06T08:58:57.168Z,7.07
2019-03-06T09:01:45.195Z,13.40
2019-03-06T09:04:26.507Z,5.73
2019-03-06T09:07:15.290Z,4.00
2019-03-06T09:10:13.181Z,6.47
2019-03-06T09:13:04.787Z,4.97
2019-03-06T09:15:56.628Z,5.13
2019-03-06T09:18:45.674Z,7.30
2019-03-06T09:21:43.502Z,6.37
2019-03-06T09:24:28.184Z,8.60
2019-03-06T09:27:06.065Z,7.83
2019-03-06T09:29:54.143Z,5.83
2019-03-06T09:32:48.867Z,11.40
2019-03-06T09:35:40.713Z,4.37
2019-03-06T09:38:22.173Z,4.53
2019-03-06T09:41:10.569Z,11.03
2019-03-06T09:44:02.125Z,7.57
2019-03-06T09:46:49.702Z,7.57
2019-03-06T09:49:37.192Z,6.07
2019-03-06T09:52:38.219Z,6.83
2019-03-06T09:55:19.091Z,6.00
2019-03-06T09:57:55.671Z,9.10
2019-03-06T10:00:42.824Z,4.57
2019-03-06T10:03:32.923Z,9.50
2019-03-06T10:06:18.271Z,7.77
2019-03-06T10:08:53.156Z,8.10
2019-03-06T10:11:36.612Z,7.83
2019-03-06T10:14:31.491Z,13.03
2019-03-06T10:17:06.566Z,7.73
2019-03-06T10:19:53.974Z,8.93
2019-03-06T10:22:23.582Z,13.30
2019-03-06T10:24:53.300Z,6.37
2019-03-06T10:27:23.107Z,5.57
2019-03-06T10:29:53.130Z,5.93
2019-03-06T10:32:22.837Z,3.77
2019-03-06T10:34:52.558Z,7.10
2019-03-06T10:37:23.076Z,8.23
2019-03-06T10:39:52.883Z,9.47
2019-03-06T10:42:22.618Z,7.37
2019-03-06T10:44:52.331Z,6.37
2019-03-06T10:47:22.131Z,4.47
2019-03-06T10:49:51.828Z,4.80
2019-03-06T10:52:21.538Z,4.23
2019-03-06T10:54:51.339Z,5.43
2019-03-06T10:57:21.079Z,5.80
2019-03-06T10:59:50.867Z,4.97
2019-03-06T11:02:20.687Z,5.57
2019-03-06T11:04:59.894Z,3.47
2019-03-06T11:07:29.626Z,5.03
2019-03-06T11:09:59.447Z,5.60
2019-03-06T11:12:29.168Z,5.53
2019-03-06T11:14:58.907Z,4.63
2019-03-06T11:17:28.687Z,3.67
2019-03-06T11:19:58.596Z,5.57
2019-03-06T11:22:28.267Z,3.63
2019-03-06T11:24:58.050Z,15.83
2019-03-06T11:27:27.654Z,3.97
2019-03-06T11:29:57.456Z,5.67
2019-03-06T11:32:27.460Z,7.10
2019-03-06T11:34:57.146Z,3.53
2019-03-06T11:37:26.742Z,6.57
2019-03-06T11:39:56.385Z,3.87
2019-03-06T11:42:26.099Z,4.20
2019-03-06T11:44:55.724Z,3.93
2019-03-06T11:47:25.417Z,4.83
2019-03-06T11:49:54.997Z,3.17
2019-03-06T11:52:24.665Z,7.00
2019-03-06T11:54:54.464Z,5.10
2019-03-06T11:57:24.112Z,6.67
2019-03-06T11:59:53.738Z,6.87
2019-03-06T12:02:23.577Z,9.40
2019-03-06T12:04:53.981Z,6.50
2019-03-06T12:07:24.010Z,9.40
2019-03-06T12:09:53.739Z,38.47
2019-03-06T12:12:23.623Z,26.17
2019-03-06T12:14:53.307Z,7.13
2019-03-06T12:17:23.170Z,16.73
2019-03-06T12:19:52.924Z,11.00
2019-03-06T12:22:22.619Z,17.80
2019-03-06T12:24:52.181Z,55.67
2019-03-06T12:27:22.002Z,39.30
2019-03-06T12:29:51.730Z,76.43
2019-03-06T12:32:21.322Z,39.47
2019-03-06T12:34:50.888Z,55.40
2019-03-06T12:37:20.462Z,30.40
2019-03-06T12:39:50.022Z,14.47
2019-03-06T12:42:19.588Z,16.17
2019-03-06T12:44:49.139Z,10.17
2019-03-06T12:47:18.784Z,10.67
2019-03-06T12:49:48.368Z,10.33
2019-03-06T12:52:17.944Z,9.17
2019-03-06T12:54:47.496Z,6.60
2019-03-06T12:57:17.153Z,6.83
2019-03-06T12:59:46.692Z,10.87
2019-03-06T13:02:16.279Z,9.60
2019-03-06T13:04:45.918Z,8.90
2019-03-06T13:07:18.069Z,15.17
2019-03-06T13:09:46.823Z,7.20
2019-03-06T13:12:17.413Z,5.73
2019-03-06T13:14:47.030Z,7.13
2019-03-06T13:17:16.618Z,8.37
2019-03-06T13:19:46.560Z,55.60
2019-03-06T13:22:16.263Z,67.00
2019-03-06T13:24:46.007Z,29.33
2019-03-06T13:27:15.664Z,23.00
2019-03-06T13:29:45.602Z,52.60
2019-03-06T13:32:15.455Z,12.50
2019-03-06T13:34:50.870Z,90.60
2019-03-06T13:37:20.377Z,50.93
2019-03-06T13:39:50.016Z,33.73
2019-03-06T13:42:19.604Z,36.50
2019-03-06T13:44:49.167Z,11.00
2019-03-06T13:47:18.804Z,14.67
2019-03-06T13:49:48.348Z,15.43
2019-03-06T13:52:18.015Z,9.97
2019-03-06T13:54:49.303Z,10.20
2019-03-06T13:57:19.069Z,12.20
2019-03-06T13:59:48.769Z,9.57
2019-03-06T14:02:19.579Z,4.53
2019-03-06T14:04:49.196Z,8.27
2019-03-06T14:07:18.854Z,11.27
2019-03-06T14:09:52.806Z,9.57
2019-03-06T14:12:22.372Z,3.67
2019-03-06T14:14:51.999Z,6.07
2019-03-06T14:17:21.762Z,7.27
2019-03-06T14:19:51.501Z,6.30
2019-03-06T14:22:21.500Z,7.10
2019-03-06T14:24:51.141Z,5.47
2019-03-06T14:27:22.928Z,6.20
2019-03-06T14:29:52.493Z,5.17
2019-03-06T14:32:22.403Z,7.70
2019-03-06T14:34:51.966Z,4.27
2019-03-06T14:37:21.556Z,4.70
2019-03-06T14:39:51.115Z,24.43
2019-03-06T14:42:20.677Z,74.70
2019-03-06T14:44:50.249Z,68.20
2019-03-06T14:47:20.081Z,3.83
2019-03-06T14:49:51.586Z,14.73
2019-03-06T14:52:21.228Z,6.57
2019-03-06T14:54:50.815Z,2.93
2019-03-06T14:57:20.495Z,9.17
2019-03-06T14:59:50.038Z,7.37
2019-03-06T15:02:19.683Z,5.00
2019-03-06T15:04:49.523Z,3.63
2019-03-06T15:07:19.196Z,2.90
2019-03-06T15:09:48.828Z,5.27
2019-03-06T15:12:18.459Z,2.97
2019-03-06T15:14:48.217Z,3.13
2019-03-06T15:17:17.909Z,5.63
2019-03-06T15:19:47.633Z,7.93
2019-03-06T15:22:17.191Z,8.87
2019-03-06T15:24:46.800Z,23.67
2019-03-06T15:27:16.510Z,10.50
2019-03-06T15:29:46.058Z,7.40
2019-03-06T15:32:16.717Z,4.47
2019-03-06T15:34:49.934Z,8.80
2019-03-06T15:37:19.809Z,8.30
2019-03-06T15:39:49.512Z,7.67
2019-03-06T15:42:20.319Z,4.37
2019-03-06T15:44:51.350Z,4.27
2019-03-06T15:47:20.906Z,7.30
2019-03-06T15:49:50.602Z,3.77
2019-03-06T15:52:20.227Z,5.63
2019-03-06T15:54:49.959Z,7.90
2019-03-06T15:57:19.807Z,3.43
2019-03-06T15:59:49.437Z,5.20
2019-03-06T16:02:19.139Z,5.90
2019-03-06T16:04:49.671Z,4.63
2019-03-06T16:07:19.611Z,5.83
2019-03-06T16:09:49.690Z,6.80
2019-03-06T16:12:19.275Z,3.60
2019-03-06T16:14:49.463Z,5.28
2019-03-06T16:17:21.157Z,6.27
2019-03-06T16:19:50.340Z,9.27
2019-03-06T16:22:20.048Z,7.43
2019-03-06T16:24:49.742Z,12.17
2019-03-06T16:27:19.304Z,13.37
2019-03-06T16:29:48.871Z,14.77
2019-03-06T16:32:18.581Z,11.97
2019-03-06T16:34:48.436Z,10.67
2019-03-06T16:37:18.134Z,5.90
2019-03-06T16:39:47.685Z,7.40
2019-03-06T16:42:17.737Z,7.27
2019-03-06T16:44:47.337Z,7.47
2019-03-06T16:47:17.005Z,6.30
2019-03-06T16:49:46.624Z,7.27
2019-03-06T16:52:16.252Z,13.07
2019-03-06T16:54:45.899Z,6.47
2019-03-06T16:57:15.475Z,9.37
2019-03-06T16:59:45.019Z,5.53
2019-03-06T17:02:14.956Z,7.03
2019-03-06T17:04:44.700Z,6.87
2019-03-06T17:07:14.312Z,5.40
2019-03-06T17:09:44.020Z,4.37
2019-03-06T17:12:15.000Z,5.07
2019-03-06T17:14:46.785Z,6.37
2019-03-06T17:17:16.420Z,6.60
2019-03-06T17:19:45.977Z,8.47
2019-03-06T17:22:15.609Z,5.40
2019-03-06T17:24:45.284Z,7.93
2019-03-06T17:27:14.893Z,5.47
2019-03-06T17:29:44.611Z,6.37
2019-03-06T17:32:14.251Z,4.93
2019-03-06T17:34:44.027Z,7.10
2019-03-06T17:37:13.637Z,7.53
2019-03-06T17:39:43.259Z,3.80
2019-03-06T17:42:12.948Z,7.50
2019-03-06T17:44:42.512Z,5.47
2019-03-06T17:47:12.063Z,4.60
2019-03-06T17:49:41.707Z,5.40
2019-03-06T17:52:11.424Z,4.40
2019-03-06T17:54:41.004Z,15.47
2019-03-06T17:57:10.861Z,6.57
2019-03-06T17:59:40.492Z,8.23
2019-03-06T18:02:10.184Z,7.30
2019-03-06T18:04:39.817Z,10.50
2019-03-06T18:07:09.491Z,5.40
2019-03-06T18:09:39.047Z,7.97
2019-03-06T18:12:08.606Z,8.60
2019-03-06T18:14:38.156Z,9.40
2019-03-06T18:17:27.824Z,10.67
2019-03-06T18:19:57.652Z,7.63
2019-03-06T18:22:27.281Z,5.30
2019-03-06T18:24:57.010Z,17.73
2019-03-06T18:27:26.814Z,13.57
2019-03-06T18:29:56.535Z,10.63
2019-03-06T18:32:26.904Z,9.60
2019-03-06T18:34:56.604Z,6.77
2019-03-06T18:37:26.224Z,8.93
2019-03-06T18:39:55.895Z,12.47
2019-03-06T18:42:25.620Z,14.20
2019-03-06T18:44:55.287Z,13.40
2019-03-06T18:47:24.872Z,11.63
2019-03-06T18:49:54.768Z,15.77
2019-03-06T18:52:24.395Z,10.50
2019-03-06T18:54:54.064Z,10.60
2019-03-06T18:57:23.789Z,6.77
2019-03-06T18:59:53.401Z,11.97
2019-03-06T19:02:23.087Z,10.30
2019-03-06T19:04:53.088Z,11.27
2019-03-06T19:07:22.734Z,15.20
2019-03-06T19:09:52.384Z,7.07
2019-03-06T19:12:22.021Z,6.43
2019-03-06T19:14:51.813Z,7.77
2019-03-06T19:17:21.486Z,8.27
2019-03-06T19:19:51.446Z,11.13
2019-03-06T19:22:21.065Z,11.67
2019-03-06T19:24:50.642Z,15.63
2019-03-06T19:27:20.304Z,11.17
2019-03-06T19:29:49.996Z,10.17
2019-03-06T19:32:19.625Z,13.37
2019-03-06T19:34:49.621Z,11.43
2019-03-06T19:37:19.301Z,7.43
2019-03-06T19:39:51.276Z,11.43
2019-03-06T19:42:20.838Z,6.57
2019-03-06T19:44:50.638Z,7.97
2019-03-06T19:47:20.517Z,7.63
2019-03-06T19:49:50.149Z,6.67
2019-03-06T19:52:19.787Z,9.73
2019-03-06T19:54:49.500Z,15.50
2019-03-06T19:57:19.112Z,11.13
2019-03-06T19:59:49.321Z,10.50
2019-03-06T20:02:19.193Z,15.53
2019-03-06T20:04:49.158Z,13.50
2019-03-06T20:07:18.839Z,9.70
2019-03-06T20:09:48.686Z,9.60
2019-03-06T20:12:18.369Z,9.87
2019-03-06T20:14:48.049Z,8.10
2019-03-06T20:17:17.968Z,6.43
2019-03-06T20:19:49.234Z,8.27
2019-03-06T20:22:19.112Z,8.73
2019-03-06T20:24:48.808Z,8.20
2019-03-06T20:27:18.683Z,13.80
2019-03-06T20:29:48.399Z,12.83
2019-03-06T20:32:18.089Z,16.97
2019-03-06T20:34:47.690Z,6.90
2019-03-06T20:37:17.476Z,6.10
2019-03-06T20:39:47.127Z,11.93
2019-03-06T20:42:16.797Z,8.20
2019-03-06T20:44:46.546Z,8.93
2019-03-06T20:47:16.371Z,12.10
2019-03-06T20:49:45.926Z,16.67
2019-03-06T20:52:15.611Z,14.50
2019-03-06T20:54:45.269Z,20.70
2019-03-06T20:57:15.340Z,12.27
2019-03-06T20:59:45.255Z,8.73
2019-03-06T21:02:14.879Z,17.93
2019-03-06T21:04:44.609Z,7.10
2019-03-06T21:07:14.394Z,11.93
2019-03-06T21:09:44.027Z,5.97
2019-03-06T21:12:13.785Z,9.63
2019-03-06T21:14:43.400Z,6.63
2019-03-06T21:17:13.934Z,7.73
2019-03-06T21:19:43.558Z,13.43
2019-03-06T21:22:13.276Z,20.97
2019-03-06T21:24:42.828Z,11.57
2019-03-06T21:27:12.499Z,9.27
2019-03-06T21:29:42.226Z,11.67
2019-03-06T21:32:12.189Z,11.93
2019-03-06T21:34:41.904Z,6.93
2019-03-06T21:37:11.632Z,12.20
2019-03-06T21:39:41.349Z,17.20
2019-03-06T21:42:11.013Z,14.40
2019-03-06T21:44:40.670Z,32.57
2019-03-06T21:47:10.353Z,10.33
2019-03-06T21:49:40.043Z,13.83
2019-03-06T21:52:09.777Z,36.40
2019-03-06T21:54:39.483Z,12.13
2019-03-06T21:57:09.833Z,18.90
2019-03-06T21:59:39.473Z,32.57
2019-03-06T22:02:09.132Z,8.43
2019-03-06T22:04:40.467Z,24.30
2019-03-06T22:07:13.172Z,11.37
2019-03-06T22:09:42.914Z,7.50
2019-03-06T22:12:12.497Z,16.77
2019-03-06T22:14:42.119Z,13.83
2019-03-06T22:17:11.921Z,18.50
2019-03-06T22:19:42.607Z,35.03
2019-03-06T22:22:12.363Z,22.73
2019-03-06T22:24:42.015Z,22.90
2019-03-06T22:27:11.696Z,29.53
2019-03-06T22:29:41.360Z,25.17
2019-03-06T22:32:11.249Z,25.53
2019-03-06T22:34:40.799Z,21.53
2019-03-06T22:37:10.766Z,26.63
2019-03-06T22:39:40.461Z,10.93
2019-03-06T22:42:10.207Z,10.53
2019-03-06T22:44:39.742Z,7.67
2019-03-06T22:47:09.501Z,7.93
2019-03-06T22:49:40.128Z,7.93
2019-03-06T22:52:09.801Z,8.93
2019-03-06T22:54:39.429Z,5.97
2019-03-06T22:57:09.030Z,7.00
2019-03-06T22:59:38.554Z,14.33
2019-03-06T23:02:08.339Z,18.10
2019-03-06T23:04:37.918Z,17.07
2019-03-06T23:07:07.779Z,24.87
2019-03-06T23:09:37.337Z,31.37
2019-03-06T23:12:07.063Z,9.37
2019-03-06T23:14:36.850Z,7.73
2019-03-06T23:17:06.512Z,15.93
2019-03-06T23:19:36.130Z,9.17
2019-03-06T23:22:05.764Z,7.17
2019-03-06T23:24:35.309Z,14.77
2019-03-06T23:27:05.111Z,60.17
2019-03-06T23:29:34.680Z,41.00
2019-03-06T23:32:04.315Z,10.33
2019-03-06T23:34:34.038Z,54.97
2019-03-06T23:37:03.601Z,31.23
2019-03-06T23:39:33.336Z,29.90
2019-03-06T23:42:03.079Z,61.87
2019-03-06T23:44:32.730Z,86.73
2019-03-06T23:47:02.387Z,120.40
2019-03-06T23:49:31.956Z,94.33
2019-03-06T23:52:07.092Z,72.10
2019-03-06T23:54:36.700Z,78.20
2019-03-06T23:57:06.279Z,107.73
2019-03-06T23:59:36.137Z,21.40
